Time;durP1;ratioP1;P1;durP2;ratioP2;P2;SDS_P1;SDS_P2;PMS_P1;PMS_P2;Temp;Humidity;BMP_temperature;BMP_pressure;BME280_temperature;BME280_humidity;BME280_pressure;Samples;Min_cycle;Max_cycle;Signal;HPM_P1;HPM_P2
2022/07/04 00:01:57;;;;;;;;;;;24.50;93.30;;;;;;5096531;28;19912;-60
2022/07/04 00:04:23;;;;;;;;;;;24.50;93.10;;;;;;5096195;28;19908;-61
2022/07/04 00:06:48;;;;;;;;;;;24.50;93.10;;;;;;5095929;28;20271;-60
2022/07/04 00:09:14;;;;;;;;;;;24.50;93.10;;;;;;5096032;28;19908;-61
2022/07/04 00:11:39;;;;;;;;;;;24.50;93.10;;;;;;5095821;28;19908;-61
2022/07/04 00:14:05;;;;;;;;;;;24.50;93.10;;;;;;5096368;28;20335;-61
2022/07/04 00:16:30;;;;;;;;;;;24.50;93.00;;;;;;5096211;28;19908;-61
2022/07/04 00:18:56;;;;;;;;;;;24.50;93.10;;;;;;5077783;28;19977;-61
2022/07/04 00:21:21;;;;;;;;;;;24.50;93.00;;;;;;5095637;28;19933;-61
2022/07/04 00:23:46;;;;;;;;;;;24.50;93.10;;;;;;5095554;28;19912;-61
2022/07/04 00:26:12;;;;;;;;;;;24.50;93.00;;;;;;5095788;28;19908;-61
2022/07/04 00:28:37;;;;;;;;;;;24.60;93.10;;;;;;5095686;28;19958;-61
2022/07/04 00:31:03;;;;;;;;;;;24.50;93.00;;;;;;5095434;28;20450;-61
2022/07/04 00:33:28;;;;;;;;;;;24.50;93.00;;;;;;5095678;28;19910;-61
2022/07/04 00:35:54;;;;;;;;;;;24.50;93.00;;;;;;5095251;28;19908;-61
2022/07/04 00:38:19;;;;;;;;;;;24.50;93.00;;;;;;5095523;28;19923;-61
2022/07/04 00:40:45;;;;;;;;;;;24.50;93.00;;;;;;5095140;28;20358;-61
2022/07/04 00:43:10;;;;;;;;;;;24.50;93.00;;;;;;5095421;28;19908;-61
2022/07/04 00:45:36;;;;;;;;;;;24.60;93.10;;;;;;5095729;28;20348;-60
2022/07/04 00:48:01;;;;;;;;;;;24.50;93.10;;;;;;5095479;28;19961;-61
2022/07/04 00:50:27;;;;;;;;;;;24.50;93.10;;;;;;5076841;28;20402;-60
2022/07/04 00:52:53;;;;;;;;;;;24.50;93.10;;;;;;5095373;28;19908;-60
2022/07/04 00:55:19;;;;;;;;;;;24.50;93.10;;;;;;5094998;28;20373;-61
2022/07/04 00:57:45;;;;;;;;;;;24.50;93.10;;;;;;5094748;28;19920;-61
2022/07/04 01:00:10;;;;;;;;;;;24.50;93.10;;;;;;5077086;28;19908;-61
2022/07/04 01:02:36;;;;;;;;;;;24.50;93.10;;;;;;5095105;28;19930;-61
2022/07/04 01:05:01;;;;;;;;;;;24.50;93.10;;;;;;5094779;28;19909;-61
2022/07/04 01:07:27;;;;;;;;;;;24.50;93.10;;;;;;5094218;28;19919;-60
2022/07/04 01:09:53;;;;;;;;;;;24.50;93.10;;;;;;5095028;28;19961;-61
2022/07/04 01:12:25;;;;;;;;;;;24.50;93.10;;;;;;5095245;28;19908;-60
2022/07/04 01:14:51;;;;;;;;;;;24.50;93.10;;;;;;5094549;28;19999;-60
2022/07/04 01:17:16;;;;;;;;;;;24.50;93.00;;;;;;5094406;28;20138;-61
2022/07/04 01:19:42;;;;;;;;;;;24.60;93.10;;;;;;5094826;28;19916;-60
2022/07/04 01:22:08;;;;;;;;;;;24.50;93.00;;;;;;5094532;28;19912;-61
2022/07/04 01:24:33;;;;;;;;;;;24.50;93.10;;;;;;5094655;28;20002;-61
2022/07/04 01:26:59;;;;;;;;;;;24.50;93.00;;;;;;5094443;28;19937;-61
2022/07/04 01:29:24;;;;;;;;;;;24.50;93.00;;;;;;5094320;28;19916;-61
2022/07/04 01:31:51;;;;;;;;;;;24.50;93.00;;;;;;5094459;28;19908;-60
2022/07/04 01:34:16;;;;;;;;;;;24.60;93.10;;;;;;5094593;28;19940;-60
2022/07/04 01:36:41;;;;;;;;;;;24.50;93.00;;;;;;5094253;28;19908;-60
2022/07/04 01:39:07;;;;;;;;;;;24.60;93.10;;;;;;5094555;28;19966;-61
2022/07/04 01:41:33;;;;;;;;;;;24.50;93.00;;;;;;5094219;28;20355;-61
2022/07/04 01:43:59;;;;;;;;;;;24.60;93.10;;;;;;5076019;28;19908;-61
2022/07/04 01:46:24;;;;;;;;;;;24.50;93.00;;;;;;5094533;28;19914;-61
2022/07/04 01:48:50;;;;;;;;;;;24.50;93.00;;;;;;5094225;28;20286;-61
2022/07/04 01:51:15;;;;;;;;;;;24.50;93.00;;;;;;5094322;28;19908;-60
2022/07/04 01:53:41;;;;;;;;;;;24.50;93.00;;;;;;5076320;28;19908;-61
2022/07/04 01:56:06;;;;;;;;;;;24.50;93.10;;;;;;5094335;28;20355;-60
2022/07/04 01:58:32;;;;;;;;;;;24.50;93.00;;;;;;5094451;28;19920;-61
2022/07/04 02:03:41;;;;;;;;;;;24.50;93.00;;;;;;5094068;28;20046;-60
2022/07/04 02:06:06;;;;;;;;;;;24.50;93.00;;;;;;5094244;28;19954;-61
2022/07/04 02:11:16;;;;;;;;;;;24.60;93.10;;;;;;5094011;28;20278;-61
2022/07/04 02:13:42;;;;;;;;;;;24.60;93.10;;;;;;5075744;28;19908;-61
2022/07/04 02:16:07;;;;;;;;;;;24.60;93.10;;;;;;5094026;28;19946;-61
2022/07/04 02:18:33;;;;;;;;;;;24.60;93.10;;;;;;5094307;28;19938;-61
2022/07/04 02:20:58;;;;;;;;;;;24.60;93.10;;;;;;5097960;28;19915;-61
2022/07/04 02:23:24;;;;;;;;;;;24.60;93.10;;;;;;5097954;28;19995;-61
2022/07/04 02:25:49;;;;;;;;;;;24.60;93.10;;;;;;5098497;28;20317;-61
2022/07/04 02:28:15;;;;;;;;;;;24.60;93.10;;;;;;5098157;28;19946;-62
2022/07/04 02:30:40;;;;;;;;;;;24.60;93.10;;;;;;5098040;28;19908;-60
2022/07/04 02:33:06;;;;;;;;;;;24.60;93.10;;;;;;5097684;28;20343;-61
2022/07/04 02:35:31;;;;;;;;;;;24.60;93.10;;;;;;5097943;28;19908;-62
2022/07/04 02:37:57;;;;;;;;;;;24.60;93.10;;;;;;5097783;28;19924;-61
2022/07/04 02:40:22;;;;;;;;;;;24.60;93.10;;;;;;5097935;28;19908;-61
2022/07/04 02:42:47;;;;;;;;;;;24.60;93.10;;;;;;5097883;28;19912;-60
2022/07/04 02:45:13;;;;;;;;;;;24.60;93.10;;;;;;5097806;28;19908;-62
2022/07/04 02:47:39;;;;;;;;;;;24.60;93.10;;;;;;5079546;28;19908;-61
2022/07/04 02:50:05;;;;;;;;;;;24.60;93.10;;;;;;5097363;28;19931;-61
2022/07/04 02:52:31;;;;;;;;;;;24.60;93.10;;;;;;5097475;28;19912;-61
2022/07/04 02:54:57;;;;;;;;;;;24.60;93.10;;;;;;5097565;28;19908;-61
2022/07/04 02:57:22;;;;;;;;;;;24.60;93.10;;;;;;5096919;28;19920;-61
2022/07/04 02:59:48;;;;;;;;;;;24.60;93.10;;;;;;5079297;28;19915;-61
2022/07/04 03:02:13;;;;;;;;;;;24.50;93.00;;;;;;5097154;28;19994;-61
2022/07/04 03:04:39;;;;;;;;;;;24.60;93.10;;;;;;5097152;28;19909;-60
2022/07/04 03:07:08;;;;;;;;;;;24.60;93.10;;;;;;5097657;28;19908;-61
2022/07/04 03:09:34;;;;;;;;;;;24.60;93.10;;;;;;5097245;28;19919;-61
2022/07/04 03:11:59;;;;;;;;;;;24.50;93.10;;;;;;5097284;28;19908;-60
2022/07/04 03:14:25;;;;;;;;;;;24.50;93.10;;;;;;5096921;28;19950;-61
2022/07/04 03:16:50;;;;;;;;;;;24.60;93.10;;;;;;5097048;28;19995;-61
2022/07/04 03:19:17;;;;;;;;;;;24.60;93.10;;;;;;5097136;28;20317;-61
2022/07/04 03:21:43;;;;;;;;;;;24.50;93.10;;;;;;5097029;28;19912;-62
2022/07/04 03:24:09;;;;;;;;;;;24.60;93.10;;;;;;5096967;28;20270;-61
2022/07/04 03:26:34;;;;;;;;;;;24.50;93.10;;;;;;5096957;28;19912;-61
2022/07/04 03:29:00;;;;;;;;;;;24.60;93.10;;;;;;5096760;28;19915;-61
2022/07/04 03:31:26;;;;;;;;;;;24.50;93.10;;;;;;5096195;28;20430;-61
2022/07/04 03:33:52;;;;;;;;;;;24.60;93.10;;;;;;5096863;28;19998;-61
2022/07/04 03:36:18;;;;;;;;;;;24.60;93.10;;;;;;5096552;28;19962;-62
2022/07/04 03:38:43;;;;;;;;;;;24.60;93.10;;;;;;5096396;28;20003;-60
2022/07/04 03:41:09;;;;;;;;;;;24.60;93.10;;;;;;5096682;28;19947;-61
2022/07/04 03:43:34;;;;;;;;;;;24.60;93.10;;;;;;5096260;28;19908;-62
2022/07/04 03:46:00;;;;;;;;;;;24.60;93.10;;;;;;5096198;28;19908;-62
2022/07/04 03:48:25;;;;;;;;;;;24.60;93.10;;;;;;5096549;28;19977;-61
2022/07/04 03:50:51;;;;;;;;;;;24.60;93.10;;;;;;5096366;28;19943;-61
2022/07/04 03:53:16;;;;;;;;;;;24.50;93.10;;;;;;5078322;28;19908;-60
2022/07/04 03:55:42;;;;;;;;;;;24.50;93.10;;;;;;5096747;28;19909;-61
2022/07/04 03:58:08;;;;;;;;;;;24.60;93.10;;;;;;5096313;28;19975;-61
2022/07/04 04:00:33;;;;;;;;;;;24.60;93.10;;;;;;5095989;28;19955;-61
2022/07/04 04:02:59;;;;;;;;;;;24.60;93.10;;;;;;5096218;28;19958;-61
2022/07/04 04:05:27;;;;;;;;;;;24.60;93.10;;;;;;5096245;28;19941;-61
2022/07/04 04:07:54;;;;;;;;;;;24.60;93.10;;;;;;5096077;28;19915;-61
2022/07/04 04:10:19;;;;;;;;;;;24.60;93.10;;;;;;5096113;28;20378;-62
2022/07/04 04:12:45;;;;;;;;;;;24.50;93.10;;;;;;5095923;28;19998;-60
2022/07/04 04:15:10;;;;;;;;;;;24.60;93.10;;;;;;5077704;28;20369;-61
2022/07/04 04:17:36;;;;;;;;;;;24.60;93.10;;;;;;5095787;28;19969;-62
2022/07/04 04:20:01;;;;;;;;;;;24.60;93.10;;;;;;5095417;28;20369;-61
2022/07/04 04:22:29;;;;;;;;;;;24.60;93.10;;;;;;5095638;28;20082;-61
2022/07/04 04:24:55;;;;;;;;;;;24.60;93.10;;;;;;5077402;28;19908;-61
2022/07/04 04:27:20;;;;;;;;;;;24.60;93.10;;;;;;5077397;28;19961;-61
2022/07/04 04:29:46;;;;;;;;;;;24.60;93.10;;;;;;5095250;28;19933;-61
2022/07/04 04:32:12;;;;;;;;;;;24.60;93.10;;;;;;5077404;28;20278;-60
2022/07/04 04:34:37;;;;;;;;;;;24.60;93.10;;;;;;5095109;28;19912;-61
2022/07/04 04:37:03;;;;;;;;;;;24.60;93.10;;;;;;5095403;28;19916;-61
2022/07/04 04:39:28;;;;;;;;;;;24.60;93.10;;;;;;5095240;28;20388;-62
2022/07/04 04:41:54;;;;;;;;;;;24.60;93.10;;;;;;5076106;28;19908;-60
2022/07/04 04:44:20;;;;;;;;;;;24.60;93.10;;;;;;5095176;28;20258;-61
2022/07/04 04:46:45;;;;;;;;;;;24.60;93.10;;;;;;5094917;28;19999;-62
2022/07/04 04:49:11;;;;;;;;;;;24.60;93.10;;;;;;5095172;28;19912;-61
2022/07/04 04:51:37;;;;;;;;;;;24.60;93.10;;;;;;5095218;28;20010;-60
2022/07/04 04:54:02;;;;;;;;;;;24.60;93.10;;;;;;5094986;28;20405;-61
2022/07/04 04:56:28;;;;;;;;;;;24.60;93.40;;;;;;5095044;28;19912;-60
2022/07/04 04:58:53;;;;;;;;;;;24.60;93.10;;;;;;5094422;28;19927;-60
2022/07/04 05:01:19;;;;;;;;;;;24.60;93.10;;;;;;5094876;28;19908;-60
2022/07/04 05:03:44;;;;;;;;;;;24.60;93.10;;;;;;5076640;28;19908;-60
2022/07/04 05:06:10;;;;;;;;;;;24.60;93.10;;;;;;5076580;28;19908;-61
2022/07/04 05:08:35;;;;;;;;;;;24.60;93.10;;;;;;5094618;28;19915;-61
2022/07/04 05:11:01;;;;;;;;;;;24.60;93.10;;;;;;5076301;28;20029;-61
2022/07/04 05:13:26;;;;;;;;;;;24.60;93.10;;;;;;5095052;28;19916;-60
2022/07/04 05:15:52;;;;;;;;;;;24.60;93.10;;;;;;5076781;28;19915;-61
2022/07/04 05:18:17;;;;;;;;;;;24.60;93.10;;;;;;5076287;28;19926;-60
2022/07/04 05:20:43;;;;;;;;;;;24.60;93.10;;;;;;5094530;28;19951;-61
2022/07/04 05:23:08;;;;;;;;;;;24.60;93.10;;;;;;5076530;28;20385;-61
2022/07/04 05:25:34;;;;;;;;;;;24.60;93.10;;;;;;5094094;28;20355;-62
2022/07/04 05:27:59;;;;;;;;;;;24.60;93.10;;;;;;5076212;28;19958;-61
2022/07/04 05:30:25;;;;;;;;;;;24.60;93.10;;;;;;5094428;28;19999;-61
2022/07/04 05:32:50;;;;;;;;;;;24.60;93.10;;;;;;5094269;28;19961;-60
2022/07/04 05:35:16;;;;;;;;;;;24.60;93.10;;;;;;5093906;28;19914;-61
2022/07/04 05:37:43;;;;;;;;;;;24.60;93.10;;;;;;5075978;28;19916;-60
2022/07/04 05:40:09;;;;;;;;;;;24.60;93.10;;;;;;5093837;28;20354;-60
2022/07/04 05:42:34;;;;;;;;;;;24.60;93.10;;;;;;5094045;28;20349;-60
2022/07/04 05:45:00;;;;;;;;;;;24.60;93.10;;;;;;5094101;28;19915;-60
2022/07/04 05:47:26;;;;;;;;;;;24.60;93.10;;;;;;5093537;28;19908;-60
2022/07/04 05:49:52;;;;;;;;;;;24.60;93.10;;;;;;5093874;28;20041;-60
2022/07/04 05:52:18;;;;;;;;;;;24.60;93.10;;;;;;5093709;28;19953;-60
2022/07/04 05:54:43;;;;;;;;;;;24.60;93.10;;;;;;5093900;28;20324;-60
2022/07/04 05:57:08;;;;;;;;;;;24.60;93.10;;;;;;5093678;28;19947;-60
2022/07/04 05:59:34;;;;;;;;;;;24.60;93.00;;;;;;5093123;28;19912;-60
2022/07/04 06:02:00;;;;;;;;;;;24.70;93.10;;;;;;5093101;28;19908;-59
2022/07/04 06:04:25;;;;;;;;;;;24.70;93.10;;;;;;5093236;28;19948;-60
2022/07/04 06:06:51;;;;;;;;;;;24.70;93.10;;;;;;5093593;28;19908;-61
2022/07/04 06:09:17;;;;;;;;;;;24.70;93.10;;;;;;5093273;28;19947;-61
2022/07/04 06:11:42;;;;;;;;;;;24.70;93.10;;;;;;5093779;28;19953;-60
2022/07/04 06:14:08;;;;;;;;;;;24.70;93.10;;;;;;5093670;28;19912;-61
2022/07/04 06:16:33;;;;;;;;;;;24.70;93.10;;;;;;5093238;28;19957;-61
2022/07/04 06:18:59;;;;;;;;;;;24.70;93.10;;;;;;5093340;28;20367;-60
2022/07/04 06:21:24;;;;;;;;;;;24.70;93.10;;;;;;5093481;28;19908;-60
2022/07/04 06:23:50;;;;;;;;;;;24.70;93.10;;;;;;5075066;28;20315;-61
2022/07/04 06:26:15;;;;;;;;;;;24.70;93.10;;;;;;5093120;28;19915;-60
2022/07/04 06:28:41;;;;;;;;;;;24.70;93.10;;;;;;5093784;28;20369;-60
2022/07/04 06:31:06;;;;;;;;;;;24.70;93.10;;;;;;5075235;28;19954;-60
2022/07/04 06:33:32;;;;;;;;;;;24.70;93.10;;;;;;5093340;28;20053;-60
2022/07/04 06:35:58;;;;;;;;;;;24.70;93.10;;;;;;5093258;28;20385;-60
2022/07/04 06:38:28;;;;;;;;;;;24.70;93.10;;;;;;5075277;28;19947;-60
2022/07/04 06:40:57;;;;;;;;;;;24.70;93.10;;;;;;5093414;28;19908;-60
2022/07/04 06:43:23;;;;;;;;;;;24.70;93.00;;;;;;5093253;28;20367;-61
2022/07/04 06:45:49;;;;;;;;;;;24.70;93.00;;;;;;5093526;28;19915;-61
2022/07/04 06:48:14;;;;;;;;;;;24.70;93.00;;;;;;5093099;28;19908;-61
2022/07/04 06:50:40;;;;;;;;;;;24.70;93.00;;;;;;5093148;28;19975;-60
2022/07/04 06:53:06;;;;;;;;;;;24.70;93.00;;;;;;5093664;28;19920;-60
2022/07/04 06:55:32;;;;;;;;;;;24.70;93.00;;;;;;5092829;28;19909;-61
2022/07/04 06:57:58;;;;;;;;;;;24.70;93.10;;;;;;5093436;28;19931;-61
2022/07/04 07:00:24;;;;;;;;;;;24.70;93.00;;;;;;5093034;28;19912;-60
2022/07/04 07:02:49;;;;;;;;;;;24.70;93.00;;;;;;5074986;28;19908;-61
2022/07/04 07:05:15;;;;;;;;;;;24.70;93.00;;;;;;5094525;28;20013;-61
2022/07/04 07:07:41;;;;;;;;;;;24.70;93.10;;;;;;5096877;28;19908;-61
2022/07/04 07:10:06;;;;;;;;;;;24.70;93.10;;;;;;5096494;28;19908;-60
2022/07/04 07:12:33;;;;;;;;;;;24.70;93.00;;;;;;5096988;28;19915;-61
2022/07/04 07:14:58;;;;;;;;;;;24.70;93.00;;;;;;5078303;28;19919;-61
2022/07/04 07:17:24;;;;;;;;;;;24.70;93.00;;;;;;5096725;28;20359;-60
2022/07/04 07:19:50;;;;;;;;;;;24.70;93.10;;;;;;5096528;28;20347;-60
2022/07/04 07:22:16;;;;;;;;;;;24.70;93.10;;;;;;5096823;28;19962;-59
2022/07/04 07:24:42;;;;;;;;;;;24.70;93.10;;;;;;5096286;28;19923;-60
2022/07/04 07:27:08;;;;;;;;;;;24.70;93.10;;;;;;5096279;28;19913;-60
2022/07/04 07:29:34;;;;;;;;;;;24.70;93.10;;;;;;5096619;28;20437;-60
2022/07/04 07:32:00;;;;;;;;;;;24.70;93.10;;;;;;5096420;28;20051;-59
2022/07/04 07:34:25;;;;;;;;;;;24.70;93.10;;;;;;5096361;28;20321;-60
2022/07/04 07:36:51;;;;;;;;;;;24.70;93.10;;;;;;5078051;28;20336;-60
2022/07/04 07:39:16;;;;;;;;;;;24.70;93.10;;;;;;5096123;28;19908;-60
2022/07/04 07:41:42;;;;;;;;;;;24.70;93.10;;;;;;5096300;28;19908;-60
2022/07/04 07:44:07;;;;;;;;;;;24.70;93.10;;;;;;5095845;28;19916;-59
2022/07/04 07:46:33;;;;;;;;;;;24.70;93.10;;;;;;5096073;28;19908;-60
2022/07/04 07:48:58;;;;;;;;;;;24.70;93.10;;;;;;5096160;28;19954;-60
2022/07/04 07:51:24;;;;;;;;;;;24.70;93.10;;;;;;5095626;28;19926;-60
2022/07/04 07:53:49;;;;;;;;;;;24.70;93.10;;;;;;5095608;28;19991;-60
2022/07/04 07:56:15;;;;;;;;;;;24.70;93.10;;;;;;5095888;28;19908;-60
2022/07/04 07:58:40;;;;;;;;;;;24.70;93.20;;;;;;5095747;28;20244;-60
2022/07/04 08:01:06;;;;;;;;;;;24.70;93.10;;;;;;5077631;28;20415;-60
2022/07/04 08:06:16;;;;;;;;;;;24.70;93.10;;;;;;5095707;28;19966;-60
2022/07/04 08:08:41;;;;;;;;;;;24.70;93.10;;;;;;5095627;28;19908;-61
2022/07/04 08:11:07;;;;;;;;;;;24.70;93.20;;;;;;5095433;28;19955;-61
2022/07/04 08:13:33;;;;;;;;;;;24.70;93.20;;;;;;5095984;28;19915;-61
2022/07/04 08:15:58;;;;;;;;;;;24.70;93.20;;;;;;5095600;28;19908;-60
2022/07/04 08:18:24;;;;;;;;;;;24.70;93.20;;;;;;5095519;28;19923;-61
2022/07/04 08:20:49;;;;;;;;;;;24.70;93.20;;;;;;5095336;28;20343;-60
2022/07/04 08:23:15;;;;;;;;;;;24.70;93.20;;;;;;5095389;28;19912;-60
2022/07/04 08:25:41;;;;;;;;;;;24.70;93.30;;;;;;5095543;28;20362;-61
2022/07/04 08:28:06;;;;;;;;;;;24.70;93.30;;;;;;5077138;28;19915;-61
2022/07/04 08:30:32;;;;;;;;;;;24.70;93.30;;;;;;5095087;28;19908;-61
2022/07/04 08:32:58;;;;;;;;;;;24.70;93.30;;;;;;5095606;28;19919;-61
2022/07/04 08:35:23;;;;;;;;;;;24.70;93.30;;;;;;5095117;28;20350;-61
2022/07/04 08:37:53;;;;;;;;;;;24.70;93.30;;;;;;5094807;28;19924;-61
2022/07/04 08:40:20;;;;;;;;;;;24.70;93.30;;;;;;5095065;28;19912;-60
2022/07/04 08:42:46;;;;;;;;;;;24.70;93.30;;;;;;5094982;28;19908;-60
2022/07/04 08:45:14;;;;;;;;;;;24.70;93.30;;;;;;5094963;28;19931;-61
2022/07/04 08:47:41;;;;;;;;;;;24.70;93.30;;;;;;5094538;28;19915;-60
2022/07/04 08:50:16;;;;;;;;;;;24.70;93.30;;;;;;5094992;28;19931;-61
2022/07/04 08:52:42;;;;;;;;;;;24.70;93.30;;;;;;5095103;28;20381;-61
2022/07/04 09:00:38;;;;;;;;;;;24.80;93.30;;;;;;5094835;28;20259;-61
2022/07/04 09:03:04;;;;;;;;;;;24.80;93.30;;;;;;5094275;28;20260;-61
2022/07/04 09:05:31;;;;;;;;;;;24.80;93.30;;;;;;5076558;28;19915;-61
2022/07/04 09:07:57;;;;;;;;;;;24.80;93.30;;;;;;5076530;28;20343;-61
2022/07/04 09:10:23;;;;;;;;;;;24.80;93.30;;;;;;5094918;28;19909;-60
2022/07/04 09:12:48;;;;;;;;;;;24.80;93.30;;;;;;5094693;28;19908;-60
2022/07/04 09:15:14;;;;;;;;;;;24.80;93.30;;;;;;5094398;28;20378;-60
2022/07/04 09:17:40;;;;;;;;;;;24.80;93.30;;;;;;5094011;28;20011;-61
2022/07/04 09:20:12;;;;;;;;;;;24.80;93.30;;;;;;5094144;28;19939;-60
2022/07/04 09:22:37;;;;;;;;;;;24.80;93.30;;;;;;5094458;28;20096;-61
2022/07/04 09:25:05;;;;;;;;;;;24.80;93.30;;;;;;5094213;28;20355;-60
2022/07/04 09:27:31;;;;;;;;;;;24.80;93.30;;;;;;5094338;28;20373;-61
2022/07/04 09:29:57;;;;;;;;;;;24.80;93.30;;;;;;5094240;28;19908;-60
2022/07/04 09:32:35;;;;;;;;;;;24.80;93.30;;;;;;5094490;28;20398;-59
2022/07/04 09:35:02;;;;;;;;;;;24.80;93.40;;;;;;5094124;28;19909;-61
2022/07/04 09:37:53;;;;;;;;;;;24.80;93.40;;;;;;5093684;28;20023;-61
2022/07/04 09:40:31;;;;;;;;;;;24.80;93.40;;;;;;5090746;28;19960;-61
2022/07/04 09:43:00;;;;;;;;;;;24.80;93.40;;;;;;5094010;28;20274;-61
2022/07/04 09:45:26;;;;;;;;;;;24.80;93.40;;;;;;5094074;28;19961;-61
2022/07/04 09:47:56;;;;;;;;;;;24.80;93.40;;;;;;5093986;28;19908;-59
2022/07/04 09:50:22;;;;;;;;;;;24.80;93.40;;;;;;5093983;28;19912;-61
2022/07/04 09:52:48;;;;;;;;;;;24.80;93.40;;;;;;5093755;28;20347;-61
2022/07/04 09:55:20;;;;;;;;;;;24.80;93.40;;;;;;5075761;28;19908;-61
2022/07/04 09:57:46;;;;;;;;;;;24.80;93.40;;;;;;5093830;28;19919;-61
2022/07/04 10:00:17;;;;;;;;;;;24.80;93.40;;;;;;5093594;28;20369;-61
2022/07/04 10:02:43;;;;;;;;;;;24.80;93.40;;;;;;5075678;28;19908;-61
2022/07/04 10:05:08;;;;;;;;;;;24.80;93.40;;;;;;5094073;28;20003;-61
2022/07/04 10:07:37;;;;;;;;;;;24.80;93.40;;;;;;5093751;28;19912;-61
2022/07/04 10:10:24;;;;;;;;;;;24.80;93.40;;;;;;5093902;28;20308;-61
2022/07/04 10:12:54;;;;;;;;;;;24.80;93.40;;;;;;5093660;28;19908;-61
2022/07/04 10:15:19;;;;;;;;;;;24.80;93.40;;;;;;5093622;28;19993;-61
2022/07/04 10:17:45;;;;;;;;;;;24.80;93.40;;;;;;5093166;28;20012;-60
2022/07/04 10:20:11;;;;;;;;;;;24.80;93.40;;;;;;5093372;28;20410;-61
2022/07/04 10:22:37;;;;;;;;;;;24.80;93.40;;;;;;5093713;28;19961;-61
2022/07/04 10:25:03;;;;;;;;;;;24.80;93.40;;;;;;5093962;28;19947;-60
2022/07/04 10:27:29;;;;;;;;;;;24.80;93.40;;;;;;5093546;28;19908;-60
2022/07/04 10:29:54;;;;;;;;;;;24.80;93.50;;;;;;5093659;28;20383;-60
2022/07/04 10:32:20;;;;;;;;;;;24.80;93.40;;;;;;5093420;28;19912;-60
2022/07/04 10:34:45;;;;;;;;;;;24.80;93.50;;;;;;5092952;28;19908;-60
2022/07/04 10:37:11;;;;;;;;;;;24.80;93.50;;;;;;5093201;28;20076;-61
2022/07/04 10:39:38;;;;;;;;;;;24.80;93.50;;;;;;5093578;28;19908;-61
2022/07/04 10:42:06;;;;;;;;;;;24.80;93.40;;;;;;5097186;28;19908;-61
2022/07/04 10:44:37;;;;;;;;;;;24.80;93.40;;;;;;5097737;28;19908;-61
2022/07/04 10:47:03;;;;;;;;;;;24.80;93.40;;;;;;5097232;28;19954;-60
2022/07/04 10:49:29;;;;;;;;;;;24.80;93.40;;;;;;5097552;28;20340;-61
2022/07/04 10:51:56;;;;;;;;;;;24.80;93.40;;;;;;5097320;28;19912;-61
2022/07/04 10:54:28;;;;;;;;;;;24.80;93.40;;;;;;5097115;28;19952;-60
2022/07/04 10:57:09;;;;;;;;;;;24.90;93.40;;;;;;5096861;28;19923;-60
2022/07/04 10:59:34;;;;;;;;;;;24.80;93.40;;;;;;5097119;28;19973;-61
2022/07/04 11:02:06;;;;;;;;;;;24.80;93.40;;;;;;5096923;28;19912;-61
2022/07/04 11:04:49;;;;;;;;;;;24.90;93.40;;;;;;5097339;28;19908;-61
2022/07/04 11:07:15;;;;;;;;;;;24.90;93.40;;;;;;5096883;28;20355;-60
2022/07/04 11:09:42;;;;;;;;;;;24.90;93.40;;;;;;5096692;28;19909;-61
2022/07/04 11:12:08;;;;;;;;;;;24.90;93.40;;;;;;5097111;28;19912;-61
2022/07/04 11:14:38;;;;;;;;;;;24.90;93.40;;;;;;5096357;28;19965;-61
2022/07/04 11:17:04;;;;;;;;;;;24.90;93.40;;;;;;5096460;28;20415;-61
2022/07/04 11:19:30;;;;;;;;;;;24.90;93.40;;;;;;5078158;28;19908;-61
2022/07/04 11:21:56;;;;;;;;;;;24.90;93.40;;;;;;5096479;28;19962;-61
2022/07/04 11:24:22;;;;;;;;;;;24.90;93.40;;;;;;5096068;28;19908;-61
2022/07/04 11:26:47;;;;;;;;;;;24.90;93.40;;;;;;5096477;28;19908;-61
2022/07/04 11:29:13;;;;;;;;;;;24.90;93.40;;;;;;5096368;28;19908;-61
2022/07/04 11:31:40;;;;;;;;;;;24.90;93.40;;;;;;5096468;28;20049;-62
2022/07/04 11:34:05;;;;;;;;;;;24.90;93.50;;;;;;5096381;28;20224;-60
2022/07/04 11:36:32;;;;;;;;;;;24.90;93.50;;;;;;5096533;28;19954;-61
2022/07/04 11:39:01;;;;;;;;;;;24.90;93.40;;;;;;5096128;28;19916;-61
2022/07/04 11:47:09;;;;;;;;;;;24.90;93.40;;;;;;5096184;28;20050;-60
2022/07/04 11:49:35;;;;;;;;;;;24.90;93.40;;;;;;5096002;28;19912;-60
2022/07/04 11:52:01;;;;;;;;;;;24.90;93.50;;;;;;5095344;28;20373;-59
2022/07/04 11:54:27;;;;;;;;;;;24.90;93.50;;;;;;5077852;28;19908;-60
2022/07/04 11:57:07;;;;;;;;;;;24.90;93.50;;;;;;5077482;28;19920;-60
2022/07/04 11:59:32;;;;;;;;;;;24.90;93.50;;;;;;5095979;28;19998;-60
2022/07/04 12:02:08;;;;;;;;;;;24.90;93.50;;;;;;5077756;28;20330;-60
2022/07/04 12:04:34;;;;;;;;;;;24.90;93.50;;;;;;5096208;28;19999;-60
2022/07/04 12:07:07;;;;;;;;;;;24.90;93.50;;;;;;5095964;28;19955;-61
2022/07/04 12:09:33;;;;;;;;;;;24.90;93.50;;;;;;5095750;28;19957;-61
2022/07/04 12:11:59;;;;;;;;;;;24.90;93.50;;;;;;5095286;28;20308;-60
2022/07/04 12:14:25;;;;;;;;;;;24.90;93.50;;;;;;5095044;28;19908;-60
2022/07/04 12:17:11;;;;;;;;;;;24.90;93.50;;;;;;5094768;28;19962;-60
2022/07/04 12:19:36;;;;;;;;;;;24.90;93.50;;;;;;5084485;28;19923;-60
2022/07/04 12:22:02;;;;;;;;;;;24.90;93.50;;;;;;5095260;28;20278;-61
2022/07/04 12:24:28;;;;;;;;;;;24.90;93.50;;;;;;5095519;28;19912;-60
2022/07/04 12:26:54;;;;;;;;;;;24.90;93.50;;;;;;5095496;28;20369;-61
2022/07/04 12:29:20;;;;;;;;;;;24.90;93.50;;;;;;5095250;28;19908;-60
2022/07/04 12:31:47;;;;;;;;;;;24.80;93.50;;;;;;5094910;28;20389;-61
2022/07/04 12:34:16;;;;;;;;;;;24.80;93.50;;;;;;5076635;28;20373;-61
2022/07/04 12:36:48;;;;;;;;;;;24.90;93.60;;;;;;5095414;28;20015;-61
2022/07/04 12:39:26;;;;;;;;;;;24.80;93.50;;;;;;5076868;28;19927;-61
2022/07/04 12:42:03;;;;;;;;;;;24.90;93.60;;;;;;5095073;28;19909;-61
2022/07/04 12:44:28;;;;;;;;;;;24.90;93.60;;;;;;5094899;28;20015;-60
2022/07/04 12:46:55;;;;;;;;;;;24.90;93.60;;;;;;5094697;28;19962;-60
2022/07/04 12:49:21;;;;;;;;;;;24.80;93.50;;;;;;5076668;28;20240;-61
2022/07/04 12:51:46;;;;;;;;;;;24.90;93.50;;;;;;5094935;28;19916;-61
2022/07/04 12:54:12;;;;;;;;;;;24.80;93.60;;;;;;5094685;28;19908;-62
2022/07/04 12:56:42;;;;;;;;;;;24.80;93.60;;;;;;5094486;28;19962;-60
2022/07/04 12:59:11;;;;;;;;;;;24.80;93.60;;;;;;5094812;28;19923;-60
2022/07/04 13:01:37;;;;;;;;;;;24.80;93.60;;;;;;5094423;28;20002;-60
2022/07/04 13:04:03;;;;;;;;;;;24.90;93.60;;;;;;5093982;28;20418;-60
2022/07/04 13:06:28;;;;;;;;;;;24.80;93.60;;;;;;5094372;28;19999;-60
2022/07/04 13:08:54;;;;;;;;;;;24.80;93.80;;;;;;5094305;28;19908;-60
2022/07/04 13:14:04;;;;;;;;;;;24.80;93.60;;;;;;5094225;28;19915;-60
2022/07/04 13:16:30;;;;;;;;;;;24.90;93.60;;;;;;5094022;28;20359;-61
2022/07/04 13:18:56;;;;;;;;;;;24.80;93.60;;;;;;5094311;28;19924;-61
2022/07/04 13:21:22;;;;;;;;;;;24.90;93.70;;;;;;5076049;28;19915;-61
2022/07/04 13:23:47;;;;;;;;;;;24.80;93.60;;;;;;5075997;28;19908;-61
2022/07/04 13:26:12;;;;;;;;;;;24.90;93.90;;;;;;5094385;28;20006;-62
2022/07/04 13:28:38;;;;;;;;;;;24.80;93.60;;;;;;5094778;28;19919;-61
2022/07/04 13:31:03;;;;;;;;;;;24.80;93.70;;;;;;5094237;28;20262;-60
2022/07/04 13:33:29;;;;;;;;;;;24.80;93.60;;;;;;5094136;28;20382;-61
2022/07/04 13:35:54;;;;;;;;;;;24.90;93.70;;;;;;5093680;28;19914;-60
2022/07/04 13:38:20;;;;;;;;;;;24.90;93.70;;;;;;5075815;28;19916;-60
2022/07/04 13:40:45;;;;;;;;;;;24.80;93.70;;;;;;5094044;28;19987;-60
2022/07/04 13:43:11;;;;;;;;;;;24.80;93.70;;;;;;5093836;28;20321;-61
2022/07/04 13:45:41;;;;;;;;;;;24.80;93.70;;;;;;5075769;28;19908;-60
2022/07/04 13:48:07;;;;;;;;;;;24.80;93.70;;;;;;5093796;28;19967;-61
2022/07/04 13:50:35;;;;;;;;;;;24.90;93.70;;;;;;5093451;28;20258;-61
2022/07/04 13:53:01;;;;;;;;;;;24.80;93.70;;;;;;5093735;28;20231;-60
2022/07/04 13:55:26;;;;;;;;;;;24.80;93.70;;;;;;5093730;28;19999;-61
2022/07/04 13:57:52;;;;;;;;;;;24.90;93.70;;;;;;5093895;28;19920;-61
2022/07/04 14:00:17;;;;;;;;;;;24.80;93.70;;;;;;5093443;28;20003;-61
2022/07/04 14:02:43;;;;;;;;;;;24.90;93.70;;;;;;5093832;28;20370;-60
2022/07/04 14:05:08;;;;;;;;;;;24.90;93.70;;;;;;5093183;28;19947;-61
2022/07/04 14:07:34;;;;;;;;;;;24.90;93.70;;;;;;5093523;28;19920;-60
2022/07/04 14:10:00;;;;;;;;;;;24.80;93.70;;;;;;5093408;28;19908;-61
2022/07/04 14:12:25;;;;;;;;;;;24.90;93.90;;;;;;5093165;28;20002;-59
2022/07/04 14:14:51;;;;;;;;;;;24.90;93.70;;;;;;5096272;28;19970;-61
2022/07/04 14:17:16;;;;;;;;;;;24.90;93.70;;;;;;5097494;28;20050;-60
2022/07/04 14:19:42;;;;;;;;;;;24.90;93.70;;;;;;5097294;28;19945;-60
2022/07/04 14:22:07;;;;;;;;;;;24.90;93.70;;;;;;5097226;28;19912;-61
2022/07/04 14:24:33;;;;;;;;;;;24.90;93.70;;;;;;5097075;28;20286;-61
2022/07/04 14:26:58;;;;;;;;;;;24.80;93.70;;;;;;5097436;28;19908;-61
2022/07/04 14:29:24;;;;;;;;;;;24.90;93.70;;;;;;5097301;28;20270;-61
2022/07/04 14:31:51;;;;;;;;;;;24.90;93.70;;;;;;5097220;28;19908;-61
2022/07/04 14:34:17;;;;;;;;;;;24.80;93.70;;;;;;5097560;28;20224;-62